createdAt,value
2019-03-15T00:00:52.164Z,8.15
2019-03-15T00:01:52.191Z,8.22
2019-03-15T00:02:52.095Z,8.20
2019-03-15T00:03:52.090Z,8.20
2019-03-15T00:04:52.082Z,8.20
2019-03-15T00:05:52.020Z,8.18
2019-03-15T00:06:52.092Z,8.14
2019-03-15T00:07:51.952Z,8.22
2019-03-15T00:08:51.934Z,8.18
2019-03-15T00:09:51.893Z,8.17
2019-03-15T00:10:51.914Z,8.21
2019-03-15T00:11:51.840Z,8.26
2019-03-15T00:12:51.823Z,8.29
2019-03-15T00:13:51.774Z,8.22
2019-03-15T00:14:51.743Z,8.26
2019-03-15T00:15:51.741Z,8.20
2019-03-15T00:16:51.693Z,8.28
2019-03-15T00:17:51.783Z,8.25
2019-03-15T00:18:51.631Z,8.25
2019-03-15T00:19:51.605Z,8.20
2019-03-15T00:20:51.572Z,8.22
2019-03-15T00:21:51.582Z,8.28
2019-03-15T00:22:51.535Z,8.21
2019-03-15T00:23:51.594Z,8.28
2019-03-15T00:24:51.451Z,8.26
2019-03-15T00:25:51.434Z,8.26
2019-03-15T00:26:51.506Z,8.22
2019-03-15T00:27:51.373Z,8.29
2019-03-15T00:28:51.427Z,8.29
2019-03-15T00:29:51.313Z,8.33
2019-03-15T00:30:51.336Z,8.26
2019-03-15T00:31:51.263Z,8.39
2019-03-15T00:32:51.336Z,8.35
2019-03-15T00:33:51.195Z,8.36
2019-03-15T00:34:51.255Z,8.40
2019-03-15T00:35:51.146Z,8.44
2019-03-15T00:36:51.185Z,8.40
2019-03-15T00:37:51.084Z,8.39
2019-03-15T00:38:51.095Z,8.39
2019-03-15T00:39:51.034Z,8.47
2019-03-15T00:40:51.094Z,8.48
2019-03-15T00:41:50.975Z,8.48
2019-03-15T00:42:50.943Z,8.48
2019-03-15T00:43:51.103Z,8.40
2019-03-15T00:44:50.882Z,8.42
2019-03-15T00:45:50.917Z,8.48
2019-03-15T00:46:50.834Z,8.45
2019-03-15T00:47:50.793Z,8.40
2019-03-15T00:48:50.774Z,8.40
2019-03-15T00:49:50.835Z,8.40
2019-03-15T00:50:50.735Z,8.36
2019-03-15T00:51:50.748Z,8.42
2019-03-15T00:52:50.655Z,8.37
2019-03-15T00:53:53.959Z,8.37
2019-03-15T00:54:50.667Z,8.30
2019-03-15T00:55:50.578Z,8.30
2019-03-15T00:56:50.562Z,8.37
2019-03-15T00:57:50.503Z,8.30
2019-03-15T00:58:50.474Z,8.32
2019-03-15T00:59:50.454Z,8.29
2019-03-15T01:00:50.504Z,8.33
2019-03-15T01:01:50.418Z,8.29
2019-03-15T01:02:50.403Z,8.36
2019-03-15T01:03:50.332Z,8.33
2019-03-15T01:04:50.313Z,8.32
2019-03-15T01:05:50.322Z,8.30
2019-03-15T01:06:50.254Z,8.30
2019-03-15T01:07:50.334Z,8.33
2019-03-15T01:08:50.206Z,8.28
2019-03-15T01:09:50.259Z,8.26
2019-03-15T01:10:50.144Z,8.26
2019-03-15T01:11:50.153Z,8.32
2019-03-15T01:12:50.969Z,8.28
2019-03-15T01:13:50.161Z,8.28
2019-03-15T01:14:50.027Z,8.29
2019-03-15T01:15:50.008Z,8.32
2019-03-15T01:16:49.978Z,8.28
2019-03-15T01:17:49.986Z,8.33
2019-03-15T01:18:49.902Z,8.28
2019-03-15T01:19:49.993Z,8.26
2019-03-15T01:20:49.855Z,8.26
2019-03-15T01:21:49.833Z,8.32
2019-03-15T01:22:49.817Z,8.30
2019-03-15T01:23:49.772Z,8.36
2019-03-15T01:24:49.834Z,8.36
2019-03-15T01:25:49.713Z,8.32
2019-03-15T01:26:49.714Z,8.32
2019-03-15T01:27:49.652Z,8.26
2019-03-15T01:28:49.643Z,8.26
2019-03-15T01:29:49.594Z,8.33
2019-03-15T01:30:49.653Z,8.32
2019-03-15T01:31:49.533Z,8.33
2019-03-15T01:32:49.518Z,8.29
2019-03-15T01:33:49.575Z,8.26
2019-03-15T01:34:49.451Z,8.26
2019-03-15T01:35:49.487Z,8.28
2019-03-15T01:36:49.462Z,8.28
2019-03-15T01:37:49.362Z,8.29
2019-03-15T01:38:49.338Z,8.29
2019-03-15T01:39:49.403Z,8.30
2019-03-15T01:40:49.284Z,8.25
2019-03-15T01:41:49.312Z,8.28
2019-03-15T01:42:49.224Z,8.22
2019-03-15T01:43:49.216Z,8.26
2019-03-15T01:44:49.233Z,8.25
2019-03-15T01:45:49.142Z,8.15
2019-03-15T01:46:49.144Z,8.22
2019-03-15T01:47:49.097Z,8.28
2019-03-15T01:48:49.054Z,8.20
2019-03-15T01:49:49.029Z,8.17
2019-03-15T01:50:49.151Z,8.14
2019-03-15T01:51:48.971Z,8.17
2019-03-15T01:52:48.975Z,8.20
2019-03-15T01:53:48.916Z,8.18
2019-03-15T01:54:48.874Z,8.18
2019-03-15T01:55:48.897Z,8.17
2019-03-15T01:56:48.822Z,8.15
2019-03-15T01:57:48.904Z,8.18
2019-03-15T01:58:48.769Z,8.11
2019-03-15T01:59:48.825Z,8.12
2019-03-15T02:00:48.715Z,8.11
2019-03-15T02:01:48.728Z,8.15
2019-03-15T02:02:48.724Z,8.07
2019-03-15T02:03:48.642Z,8.07
2019-03-15T02:04:48.599Z,8.12
2019-03-15T02:05:48.552Z,8.11
2019-03-15T02:06:48.545Z,8.15
2019-03-15T02:07:50.605Z,8.12
2019-03-15T02:08:48.473Z,8.12
2019-03-15T02:09:48.478Z,8.12
2019-03-15T02:10:48.439Z,8.11
2019-03-15T02:11:48.393Z,8.14
2019-03-15T02:12:48.384Z,8.10
2019-03-15T02:13:55.615Z,8.15
2019-03-15T02:15:43.416Z,8.20
2019-03-15T02:16:42.263Z,8.11
2019-03-15T02:17:42.184Z,8.12
2019-03-15T02:18:42.172Z,8.10
2019-03-15T02:19:42.113Z,8.11
2019-03-15T02:20:42.201Z,8.04
2019-03-15T02:21:42.053Z,8.12
2019-03-15T02:22:42.022Z,8.12
2019-03-15T02:23:42.004Z,8.10
2019-03-15T02:24:42.006Z,8.08
2019-03-15T02:25:41.945Z,8.25
2019-03-15T02:26:42.033Z,8.17
2019-03-15T02:27:41.881Z,8.11
2019-03-15T02:28:41.934Z,8.20
2019-03-15T02:29:41.844Z,8.20
2019-03-15T02:30:41.842Z,8.15
2019-03-15T02:31:41.772Z,8.21
2019-03-15T02:32:41.855Z,8.12
2019-03-15T02:33:41.714Z,8.12
2019-03-15T02:34:42.794Z,8.10
2019-03-15T02:35:41.653Z,8.12
2019-03-15T02:36:41.673Z,8.15
2019-03-15T02:37:41.594Z,8.17
2019-03-15T02:38:41.587Z,8.12
2019-03-15T02:39:41.536Z,8.10
2019-03-15T02:40:41.594Z,8.18
2019-03-15T02:41:41.474Z,8.08
2019-03-15T02:42:41.503Z,8.10
2019-03-15T02:43:41.426Z,8.08
2019-03-15T02:44:41.394Z,8.07
2019-03-15T02:45:41.361Z,8.07
2019-03-15T02:46:41.445Z,8.11
2019-03-15T02:47:41.302Z,8.10
2019-03-15T02:48:41.347Z,8.07
2019-03-15T02:49:41.265Z,8.03
2019-03-15T02:50:41.215Z,8.12
2019-03-15T02:51:41.254Z,8.10
2019-03-15T02:52:42.333Z,8.07
2019-03-15T02:53:41.164Z,8.08
2019-03-15T02:54:41.116Z,8.10
2019-03-15T02:55:41.076Z,8.10
2019-03-15T02:56:42.378Z,8.10
2019-03-15T02:57:41.093Z,8.12
2019-03-15T02:58:40.993Z,8.15
2019-03-15T02:59:41.025Z,8.12
2019-03-15T03:00:41.172Z,8.12
2019-03-15T03:01:41.198Z,8.10
2019-03-15T03:02:40.934Z,8.11
2019-03-15T03:03:40.857Z,8.02
2019-03-15T03:04:41.331Z,8.07
2019-03-15T03:05:40.798Z,8.00
2019-03-15T03:06:40.772Z,8.11
2019-03-15T03:07:40.735Z,8.11
2019-03-15T03:08:41.384Z,8.07
2019-03-15T03:09:40.675Z,8.08
2019-03-15T03:10:40.665Z,8.15
2019-03-15T03:11:40.625Z,8.20
2019-03-15T03:12:40.587Z,8.12
2019-03-15T03:13:40.560Z,8.08
2019-03-15T03:14:40.585Z,8.11
2019-03-15T03:15:40.512Z,8.15
2019-03-15T03:16:40.511Z,8.15
2019-03-15T03:17:40.524Z,8.17
2019-03-15T03:18:40.505Z,8.17
2019-03-15T03:19:40.403Z,8.18
2019-03-15T03:20:40.423Z,8.21
2019-03-15T03:21:40.329Z,8.12
2019-03-15T03:22:40.332Z,8.20
2019-03-15T03:23:40.334Z,8.15
2019-03-15T03:24:40.248Z,8.17
2019-03-15T03:25:40.248Z,8.08
2019-03-15T03:26:40.446Z,8.15
2019-03-15T03:27:40.253Z,8.15
2019-03-15T03:28:40.132Z,8.14
2019-03-15T03:29:40.163Z,8.12
2019-03-15T03:30:40.061Z,8.07
2019-03-15T03:31:40.241Z,8.12
2019-03-15T03:32:40.886Z,8.12
2019-03-15T03:33:40.896Z,8.11
2019-03-15T03:34:40.768Z,8.04
2019-03-15T03:35:39.933Z,8.08
2019-03-15T03:36:40.002Z,8.08
2019-03-15T03:37:39.865Z,8.07
2019-03-15T03:38:39.915Z,8.04
2019-03-15T03:39:39.810Z,8.11
2019-03-15T03:40:39.771Z,8.10
2019-03-15T03:41:39.833Z,8.04
2019-03-15T03:42:39.712Z,8.08
2019-03-15T03:43:39.743Z,8.08
2019-03-15T03:44:39.665Z,8.10
2019-03-15T03:45:39.630Z,8.12
2019-03-15T03:46:39.613Z,8.14
2019-03-15T03:47:39.662Z,8.17
2019-03-15T03:48:39.551Z,8.11
2019-03-15T03:49:39.570Z,8.10
2019-03-15T03:50:39.486Z,8.08
2019-03-15T03:51:39.461Z,8.08
2019-03-15T03:52:41.683Z,8.08
2019-03-15T03:53:39.414Z,8.12
2019-03-15T03:54:39.400Z,8.03
2019-03-15T03:55:39.340Z,8.17
2019-03-15T03:56:39.323Z,8.08
2019-03-15T03:57:39.283Z,8.12
2019-03-15T03:58:39.327Z,8.11
2019-03-15T03:59:39.232Z,8.10
2019-03-15T04:00:39.233Z,8.12
2019-03-15T04:01:39.174Z,8.11
2019-03-15T04:02:39.144Z,8.15
2019-03-15T04:03:39.111Z,8.15
2019-03-15T04:04:39.161Z,8.14
2019-03-15T04:05:39.080Z,8.15
2019-03-15T04:06:39.162Z,8.20
2019-03-15T04:07:39.001Z,8.10
2019-03-15T04:08:39.084Z,8.12
2019-03-15T04:09:38.942Z,8.25
2019-03-15T04:10:38.991Z,8.14
2019-03-15T04:11:38.884Z,8.21
2019-03-15T04:12:38.899Z,8.14
2019-03-15T04:13:38.821Z,8.22
2019-03-15T04:14:38.810Z,8.10
2019-03-15T04:15:38.761Z,8.08
2019-03-15T04:16:38.822Z,8.12
2019-03-15T04:17:38.703Z,8.10
2019-03-15T04:18:38.731Z,8.15
2019-03-15T04:19:38.652Z,8.22
2019-03-15T04:20:38.643Z,8.20
2019-03-15T04:21:38.595Z,8.22
2019-03-15T04:22:38.652Z,8.18
2019-03-15T04:23:38.891Z,8.17
2019-03-15T04:24:38.516Z,8.17
2019-03-15T04:25:40.509Z,8.18
2019-03-15T04:26:38.483Z,8.18
2019-03-15T04:27:38.413Z,8.25
2019-03-15T04:28:38.490Z,8.22
2019-03-15T04:29:38.362Z,8.18
2019-03-15T04:30:38.340Z,8.30
2019-03-15T04:31:38.400Z,8.26
2019-03-15T04:32:38.269Z,8.25
2019-03-15T04:33:38.310Z,8.26
2019-03-15T04:34:38.223Z,8.21
2019-03-15T04:35:38.184Z,8.22
2019-03-15T04:36:38.151Z,8.26
2019-03-15T04:37:38.243Z,8.26
2019-03-15T04:38:38.091Z,8.28
2019-03-15T04:39:38.162Z,8.25
2019-03-15T04:40:38.042Z,8.22
2019-03-15T04:41:38.013Z,8.30
2019-03-15T04:42:38.062Z,8.28
2019-03-15T04:43:37.952Z,8.28
2019-03-15T04:44:37.978Z,8.20
2019-03-15T04:45:37.903Z,8.26
2019-03-15T04:46:37.861Z,8.22
2019-03-15T04:47:37.835Z,8.21
2019-03-15T04:48:37.900Z,8.25
2019-03-15T04:49:37.783Z,8.25
2019-03-15T04:50:37.813Z,8.30
2019-03-15T04:51:37.721Z,8.30
2019-03-15T04:52:37.689Z,8.28
2019-03-15T04:53:37.662Z,8.22
2019-03-15T04:54:37.782Z,8.28
2019-03-15T04:55:37.613Z,8.33
2019-03-15T04:56:37.643Z,8.30
2019-03-15T04:57:37.549Z,8.25
2019-03-15T04:58:37.550Z,8.30
2019-03-15T04:59:37.484Z,8.21
2019-03-15T05:00:37.558Z,8.28
2019-03-15T05:01:37.431Z,8.28
2019-03-15T05:02:37.472Z,8.30
2019-03-15T05:03:37.481Z,8.30
2019-03-15T05:04:37.342Z,8.44
2019-03-15T05:05:37.389Z,8.25
2019-03-15T05:06:37.291Z,8.32
2019-03-15T05:07:37.299Z,8.30
2019-03-15T05:08:37.235Z,8.30
2019-03-15T05:09:37.312Z,8.37
2019-03-15T05:10:37.182Z,8.30
2019-03-15T05:11:37.221Z,8.36
2019-03-15T05:12:37.111Z,8.36
2019-03-15T05:13:37.130Z,8.37
2019-03-15T05:14:37.143Z,8.36
2019-03-15T05:15:37.032Z,8.33
2019-03-15T05:16:37.062Z,8.30
2019-03-15T05:17:36.969Z,8.32
2019-03-15T05:18:36.962Z,8.36
2019-03-15T05:19:36.922Z,8.33
2019-03-15T05:20:36.893Z,8.40
2019-03-15T05:21:36.880Z,8.32
2019-03-15T05:22:36.822Z,8.28
2019-03-15T05:23:36.892Z,8.35
2019-03-15T05:24:36.761Z,8.30
2019-03-15T05:25:36.745Z,8.37
2019-03-15T05:26:36.713Z,8.33
2019-03-15T05:27:36.712Z,8.37
2019-03-15T05:28:36.651Z,8.33
2019-03-15T05:29:36.722Z,8.32
2019-03-15T05:30:36.589Z,8.42
2019-03-15T05:31:36.590Z,8.32
2019-03-15T05:32:36.641Z,8.32
2019-03-15T05:33:36.512Z,8.30
2019-03-15T05:34:36.551Z,8.30
2019-03-15T05:35:36.453Z,8.26
2019-03-15T05:36:36.421Z,8.33
2019-03-15T05:37:36.392Z,8.33
2019-03-15T05:38:36.470Z,8.36
2019-03-15T05:39:36.341Z,8.33
2019-03-15T05:40:36.381Z,8.33
2019-03-15T05:41:36.273Z,8.33
2019-03-15T05:42:36.292Z,8.36
2019-03-15T05:43:36.302Z,8.37
2019-03-15T05:44:36.191Z,8.42
2019-03-15T05:45:36.219Z,8.37
2019-03-15T05:46:36.131Z,8.26
2019-03-15T05:47:36.123Z,8.28
2019-03-15T05:48:36.081Z,8.35
2019-03-15T05:49:36.144Z,8.29
2019-03-15T05:50:36.021Z,8.35
2019-03-15T05:51:36.042Z,8.29
2019-03-15T05:52:35.965Z,8.22
2019-03-15T05:53:35.932Z,8.28
2019-03-15T05:54:35.961Z,8.26
2019-03-15T05:55:35.881Z,8.22
2019-03-15T05:56:35.873Z,8.25
2019-03-15T05:57:35.814Z,8.28
2019-03-15T05:58:35.881Z,8.26
2019-03-15T05:59:35.762Z,8.28
2019-03-15T06:00:35.793Z,8.40
2019-03-15T06:01:35.701Z,8.22
2019-03-15T06:02:35.705Z,8.25
2019-03-15T06:03:47.760Z,8.28
2019-03-15T06:04:35.626Z,8.28
2019-03-15T06:05:35.611Z,8.32
2019-03-15T06:06:35.561Z,8.29
2019-03-15T06:07:35.644Z,8.30
2019-03-15T06:08:35.501Z,8.29
2019-03-15T06:09:35.542Z,8.26
2019-03-15T06:10:35.577Z,8.28
2019-03-15T06:11:35.453Z,8.25
2019-03-15T06:12:35.392Z,8.26
2019-03-15T06:13:35.463Z,8.25
2019-03-15T06:14:35.321Z,8.30
2019-03-15T06:15:35.301Z,8.26
2019-03-15T06:16:35.271Z,8.28
2019-03-15T06:17:35.296Z,8.28
2019-03-15T06:18:35.214Z,8.28
2019-03-15T06:19:35.300Z,8.29
2019-03-15T06:20:35.161Z,8.18
2019-03-15T06:21:35.125Z,8.28
2019-03-15T06:22:35.130Z,8.30
2019-03-15T06:23:35.082Z,8.29
2019-03-15T06:24:35.149Z,8.26
2019-03-15T06:25:35.128Z,8.21
2019-03-15T06:26:34.999Z,8.26
2019-03-15T06:27:34.964Z,8.28
2019-03-15T06:28:34.942Z,8.32
2019-03-15T06:29:34.891Z,8.28
2019-03-15T06:30:34.959Z,8.29
2019-03-15T06:31:34.832Z,8.28
2019-03-15T06:32:34.813Z,8.30
2019-03-15T06:33:34.783Z,8.30
2019-03-15T06:34:34.772Z,8.28
2019-03-15T06:35:34.731Z,8.40
2019-03-15T06:36:34.792Z,8.28
2019-03-15T06:37:34.663Z,8.28
2019-03-15T06:38:34.701Z,8.29
2019-03-15T06:39:34.601Z,8.25
2019-03-15T06:40:34.625Z,8.29
2019-03-15T06:41:34.550Z,8.36
2019-03-15T06:42:34.633Z,8.25
2019-03-15T06:43:34.520Z,8.32
2019-03-15T06:44:37.348Z,8.28
2019-03-15T06:45:34.563Z,8.30
2019-03-15T06:46:34.408Z,8.30
2019-03-15T06:47:34.444Z,8.28
2019-03-15T06:48:34.354Z,8.32
2019-03-15T06:49:34.312Z,8.30
2019-03-15T06:50:34.361Z,8.42
2019-03-15T06:51:34.262Z,8.40
2019-03-15T06:52:34.270Z,8.28
2019-03-15T06:53:34.202Z,8.32
2019-03-15T06:54:34.171Z,8.35
2019-03-15T06:55:34.140Z,8.29
2019-03-15T06:56:34.202Z,8.36
2019-03-15T06:57:34.089Z,8.37
2019-03-15T06:58:34.115Z,8.37
2019-03-15T06:59:34.023Z,8.40
2019-03-15T07:00:34.001Z,8.35
2019-03-15T07:01:34.021Z,8.32
2019-03-15T07:02:33.943Z,8.36
2019-03-15T07:03:33.935Z,8.36
2019-03-15T07:04:33.890Z,8.45
2019-03-15T07:05:33.849Z,8.36
2019-03-15T07:06:33.830Z,8.40
2019-03-15T07:07:33.853Z,8.42
2019-03-15T07:08:33.772Z,8.44
2019-03-15T07:09:33.761Z,8.39
2019-03-15T07:10:33.711Z,8.42
2019-03-15T07:11:33.829Z,8.40
2019-03-15T07:12:33.662Z,8.44
2019-03-15T07:13:33.691Z,8.42
2019-03-15T07:14:33.591Z,8.39
2019-03-15T07:15:33.602Z,8.37
2019-03-15T07:16:33.602Z,8.44
2019-03-15T07:17:33.523Z,8.47
2019-03-15T07:18:33.510Z,8.44
2019-03-15T07:19:33.465Z,8.44
2019-03-15T07:20:33.539Z,8.42
2019-03-15T07:21:36.570Z,8.42
2019-03-15T07:22:33.373Z,8.45
2019-03-15T07:23:33.442Z,8.42
2019-03-15T07:24:33.322Z,8.37
2019-03-15T07:25:33.351Z,8.42
2019-03-15T07:26:33.251Z,8.48
2019-03-15T07:27:33.220Z,8.39
2019-03-15T07:28:33.277Z,8.51
2019-03-15T07:29:33.203Z,8.50
2019-03-15T07:30:33.182Z,8.51
2019-03-15T07:31:33.127Z,8.50
2019-03-15T07:32:33.092Z,8.47
2019-03-15T07:33:33.052Z,8.47
2019-03-15T07:34:33.101Z,8.51
2019-03-15T07:35:33.528Z,8.51
2019-03-15T07:36:33.010Z,8.50
2019-03-15T07:37:32.941Z,8.48
2019-03-15T07:38:32.915Z,8.58
2019-03-15T07:39:32.944Z,8.55
2019-03-15T07:40:32.857Z,8.50
2019-03-15T07:41:32.852Z,8.51
2019-03-15T07:42:32.801Z,8.50
2019-03-15T07:43:32.762Z,8.62
2019-03-15T07:44:32.742Z,8.62
2019-03-15T07:45:32.771Z,8.60
2019-03-15T07:46:32.695Z,8.62
2019-03-15T07:47:32.694Z,8.58
2019-03-15T07:48:32.621Z,8.58
2019-03-15T07:49:32.612Z,8.66
2019-03-15T07:50:32.603Z,8.69
2019-03-15T07:51:32.546Z,8.69
2019-03-15T07:52:32.620Z,8.76
2019-03-15T07:53:35.254Z,8.72
2019-03-15T07:54:38.001Z,8.79
2019-03-15T07:55:32.422Z,8.78
2019-03-15T07:56:32.443Z,8.69
2019-03-15T07:57:32.370Z,8.73
2019-03-15T07:58:33.679Z,8.79
2019-03-15T07:59:32.314Z,8.81
2019-03-15T08:00:32.292Z,8.87
2019-03-15T08:01:32.263Z,8.84
2019-03-15T08:02:32.283Z,8.87
2019-03-15T08:03:32.301Z,8.87
2019-03-15T08:04:32.296Z,8.97
2019-03-15T08:05:32.143Z,8.94
2019-03-15T08:06:35.011Z,9.06
2019-03-15T08:07:37.776Z,9.05
2019-03-15T08:08:32.093Z,9.12
2019-03-15T08:09:32.121Z,9.10
2019-03-15T08:10:31.992Z,9.10
2019-03-15T08:11:31.979Z,9.18
2019-03-15T08:12:31.943Z,9.21
2019-03-15T08:13:31.963Z,9.23
2019-03-15T09:07:21.760Z,10.76
2019-03-15T09:08:13.282Z,10.78
2019-03-15T09:10:23.277Z,10.86
2019-03-15T09:11:17.219Z,10.86
2019-03-15T09:13:21.230Z,10.91
2019-03-15T09:14:21.100Z,10.98
2019-03-15T09:16:14.061Z,10.92
2019-03-15T09:17:13.961Z,10.94
2019-03-15T09:19:17.991Z,10.98
2019-03-15T09:20:17.873Z,11.07
2019-03-15T09:22:21.904Z,11.09
2019-03-15T09:23:21.791Z,11.11
2019-03-15T09:25:25.811Z,11.09
2019-03-15T09:26:25.714Z,11.11
2019-03-15T09:28:29.722Z,11.17
2019-03-15T09:29:29.622Z,11.19
2019-03-15T09:31:47.113Z,11.27
2019-03-15T09:32:33.533Z,11.25
2019-03-15T09:34:37.544Z,11.21
2019-03-15T09:35:37.501Z,11.16
2019-03-15T09:37:42.382Z,11.32
2019-03-15T09:38:42.292Z,11.29
2019-03-15T09:40:46.298Z,11.35
2019-03-15T09:41:46.182Z,11.38
2019-03-15T09:43:50.206Z,11.43
2019-03-15T09:44:50.112Z,11.44
2019-03-15T09:46:54.120Z,11.59
2019-03-15T09:47:54.161Z,11.56
2019-03-15T09:49:58.042Z,11.54
2019-03-15T09:50:57.952Z,11.57
2019-03-15T09:51:57.891Z,11.54
2019-03-15T09:52:57.902Z,11.57
2019-03-15T09:53:57.843Z,11.62
2019-03-15T09:54:57.921Z,11.61
2019-03-15T09:55:57.802Z,11.68
2019-03-15T09:56:57.831Z,11.70
2019-03-15T09:57:57.732Z,11.67
2019-03-15T09:58:57.733Z,11.72
2019-03-15T09:59:57.685Z,11.65
2019-03-15T10:00:58.067Z,11.77
2019-03-15T10:01:57.621Z,11.75
2019-03-15T10:02:57.603Z,11.70
2019-03-15T10:03:57.682Z,11.71
2019-03-15T10:05:10.276Z,11.75
2019-03-15T10:05:57.521Z,11.93
2019-03-15T10:06:57.593Z,11.87
2019-03-15T10:07:57.487Z,11.74
2019-03-15T10:08:57.442Z,11.86
2019-03-15T10:09:57.512Z,11.85
2019-03-15T10:10:57.405Z,11.80
2019-03-15T10:11:57.433Z,11.82
2019-03-15T10:13:05.787Z,11.77
2019-03-15T10:13:57.333Z,11.93
2019-03-15T10:14:57.286Z,11.85
2019-03-15T10:15:57.375Z,11.86
2019-03-15T10:16:57.231Z,11.75
2019-03-15T10:17:57.278Z,11.90
2019-03-15T10:18:57.173Z,11.86
2019-03-15T10:19:57.152Z,11.90
2019-03-15T10:20:57.184Z,11.86
2019-03-15T10:21:57.095Z,11.86
2019-03-15T10:23:05.938Z,11.86
2019-03-15T10:23:57.053Z,11.93
2019-03-15T10:24:57.021Z,11.99
2019-03-15T10:25:57.857Z,11.94
2019-03-15T10:26:56.962Z,11.93
2019-03-15T10:27:57.051Z,11.96
2019-03-15T10:28:56.933Z,11.99
2019-03-15T10:29:56.952Z,12.04
2019-03-15T10:30:56.867Z,11.97
2019-03-15T10:31:56.855Z,11.97
2019-03-15T10:32:56.812Z,11.97
2019-03-15T10:33:56.945Z,12.02
2019-03-15T10:34:56.758Z,12.02
2019-03-15T10:35:56.725Z,12.04
2019-03-15T10:36:56.703Z,12.05
2019-03-15T10:37:56.693Z,12.02
2019-03-15T10:38:56.643Z,12.11
2019-03-15T10:39:56.709Z,12.11
2019-03-15T10:40:56.591Z,12.16
2019-03-15T10:41:56.564Z,12.13
2019-03-15T10:42:56.621Z,12.20
2019-03-15T10:43:56.512Z,12.21
2019-03-15T10:44:56.544Z,12.24
2019-03-15T10:45:56.464Z,12.23
2019-03-15T10:46:56.433Z,12.19
2019-03-15T10:47:56.403Z,12.29
2019-03-15T10:48:56.470Z,12.15
2019-03-15T10:49:56.366Z,12.31
2019-03-15T10:50:56.384Z,12.30
2019-03-15T10:51:56.311Z,12.20
2019-03-15T10:52:56.272Z,12.26
2019-03-15T10:53:56.294Z,12.29
2019-03-15T10:54:56.233Z,12.29
2019-03-15T10:56:00.440Z,12.29
2019-03-15T10:56:56.172Z,12.33
2019-03-15T10:57:56.144Z,12.29
2019-03-15T10:58:56.132Z,12.34
2019-03-15T10:59:56.134Z,12.33
2019-03-15T11:00:56.071Z,12.44
2019-03-15T11:01:56.237Z,12.41
2019-03-15T11:02:56.022Z,12.45
2019-03-15T11:03:55.995Z,12.44
2019-03-15T11:04:56.068Z,12.44
2019-03-15T11:05:55.942Z,12.44
2019-03-15T11:06:55.977Z,12.42
2019-03-15T11:07:55.890Z,12.56
2019-03-15T11:08:55.855Z,12.56
2019-03-15T11:09:55.830Z,12.51
2019-03-15T11:10:55.904Z,12.60
2019-03-15T11:11:55.799Z,12.62
2019-03-15T11:12:55.825Z,12.62
2019-03-15T11:13:55.849Z,12.57
2019-03-15T11:14:55.701Z,12.70
2019-03-15T11:15:55.673Z,12.60
2019-03-15T11:16:55.732Z,12.62
2019-03-15T11:17:55.647Z,12.62
2019-03-15T11:18:55.643Z,12.63
2019-03-15T11:19:55.578Z,12.66
2019-03-15T11:20:55.562Z,12.60
2019-03-15T11:21:55.533Z,12.67
2019-03-15T11:22:55.585Z,12.75
2019-03-15T11:23:55.475Z,12.75
2019-03-15T11:24:55.483Z,12.79
2019-03-15T11:25:55.505Z,12.75
2019-03-15T11:26:55.394Z,12.75
2019-03-15T11:27:55.403Z,12.81
2019-03-15T11:28:55.342Z,12.81
2019-03-15T11:29:55.432Z,12.77
2019-03-15T11:30:55.285Z,12.74
2019-03-15T11:31:55.333Z,12.74
2019-03-15T11:32:55.237Z,12.81
2019-03-15T11:33:55.254Z,12.78
2019-03-15T11:34:55.184Z,12.74
2019-03-15T11:35:55.252Z,12.75
2019-03-15T11:36:58.568Z,12.88
2019-03-15T11:37:55.114Z,12.97
2019-03-15T11:38:55.223Z,12.96
2019-03-15T11:39:55.064Z,12.99
2019-03-15T11:40:55.081Z,13.06
2019-03-15T11:41:55.003Z,13.04
2019-03-15T11:42:54.982Z,13.12
2019-03-15T11:43:55.003Z,13.03
2019-03-15T11:44:54.933Z,13.15
2019-03-15T11:45:54.933Z,13.15
2019-03-15T11:46:54.878Z,13.20
2019-03-15T11:48:03.254Z,13.24
2019-03-15T11:48:54.832Z,13.22
2019-03-15T11:49:54.945Z,13.29
2019-03-15T11:50:54.784Z,13.22
2019-03-15T11:51:54.962Z,13.15
2019-03-15T11:52:54.821Z,13.20
2019-03-15T11:53:54.701Z,13.20
2019-03-15T11:54:54.783Z,13.21
2019-03-15T11:55:54.642Z,13.33
2019-03-15T11:56:54.691Z,13.44
2019-03-15T11:57:54.592Z,13.41
2019-03-15T11:58:54.584Z,13.41
2019-03-15T11:59:54.542Z,13.58
2019-03-15T12:00:54.611Z,13.56
2019-03-15T12:02:03.995Z,13.51
2019-03-15T12:02:54.535Z,13.56
2019-03-15T12:03:54.449Z,13.56
2019-03-15T12:04:54.422Z,13.52
2019-03-15T12:05:54.442Z,13.55
2019-03-15T12:06:54.393Z,13.41
2019-03-15T12:07:54.448Z,13.46
2019-03-15T12:08:54.323Z,13.41
2019-03-15T12:09:54.292Z,13.25
2019-03-15T12:10:54.324Z,13.36
2019-03-15T12:11:54.284Z,13.22
2019-03-15T12:12:54.222Z,13.18
2019-03-15T12:13:54.304Z,13.07
2019-03-15T12:14:54.170Z,13.33
2019-03-15T12:15:54.143Z,13.27
2019-03-15T12:16:54.236Z,13.38
2019-03-15T12:17:54.101Z,13.30
2019-03-15T12:18:54.143Z,13.47
2019-03-15T12:19:54.043Z,13.55
2019-03-15T12:20:54.022Z,13.65
2019-03-15T12:22:05.567Z,13.54
2019-03-15T12:22:53.974Z,13.67
2019-03-15T12:23:54.062Z,13.88
2019-03-15T12:24:53.921Z,14.09
2019-03-15T12:25:53.971Z,14.12
2019-03-15T12:26:53.894Z,14.17
2019-03-15T12:27:53.980Z,14.24
2019-03-15T12:28:53.831Z,14.29
2019-03-15T12:29:53.911Z,14.28
2019-03-15T12:30:53.782Z,14.24
2019-03-15T12:31:53.741Z,14.28
2019-03-15T12:32:53.733Z,14.37
2019-03-15T12:33:53.831Z,14.49
2019-03-15T12:34:53.672Z,14.46
2019-03-15T12:35:53.732Z,14.42
2019-03-15T12:36:53.634Z,14.34
2019-03-15T12:37:53.599Z,14.38
2019-03-15T12:38:53.572Z,14.34
2019-03-15T12:39:53.665Z,14.27
2019-03-15T12:40:53.520Z,14.27
2019-03-15T12:41:53.573Z,14.17
2019-03-15T12:42:53.481Z,14.20
2019-03-15T12:43:53.589Z,14.21
2019-03-15T12:44:53.431Z,14.27
2019-03-15T12:45:53.506Z,14.28
2019-03-15T12:46:53.400Z,14.19
2019-03-15T12:47:53.512Z,14.21
2019-03-15T12:48:53.420Z,14.31
2019-03-15T12:49:53.309Z,14.24
2019-03-15T12:50:53.430Z,14.20
2019-03-15T12:51:53.262Z,14.28
2019-03-15T12:52:53.351Z,14.21
2019-03-15T12:53:53.222Z,14.27
2019-03-15T12:54:53.181Z,14.21
2019-03-15T12:55:53.262Z,14.16
2019-03-15T12:56:54.231Z,14.17
2019-03-15T12:57:53.286Z,14.14
2019-03-15T12:58:53.090Z,14.17
2019-03-15T12:59:53.061Z,14.07
2019-03-15T13:00:53.040Z,14.09
2019-03-15T13:01:53.103Z,14.06
2019-03-15T13:02:52.993Z,14.10
2019-03-15T13:03:53.119Z,14.01
2019-03-15T13:04:52.938Z,13.96
2019-03-15T13:05:52.919Z,13.91
2019-03-15T13:06:53.029Z,13.91
2019-03-15T13:07:52.869Z,13.88
2019-03-15T13:08:52.958Z,13.81
2019-03-15T13:09:52.820Z,13.83
2019-03-15T13:10:52.817Z,13.80
2019-03-15T13:11:52.780Z,13.76
2019-03-15T13:12:52.881Z,13.76
2019-03-15T13:13:52.719Z,13.71
2019-03-15T13:14:52.777Z,13.79
2019-03-15T13:15:52.679Z,13.77
2019-03-15T13:16:52.658Z,13.71
2019-03-15T13:17:52.627Z,13.65
2019-03-15T13:18:52.709Z,13.71
2019-03-15T13:19:55.454Z,13.69
2019-03-15T13:20:52.724Z,13.73
2019-03-15T13:21:52.518Z,13.76
2019-03-15T13:22:52.631Z,13.65
2019-03-15T13:23:52.481Z,13.74
2019-03-15T13:24:52.559Z,13.70
2019-03-15T13:25:54.688Z,13.62
2019-03-15T13:26:52.558Z,13.65
2019-03-15T13:27:52.570Z,13.65
2019-03-15T13:28:52.357Z,13.63
2019-03-15T13:29:52.491Z,13.69
2019-03-15T13:30:52.299Z,13.69
2019-03-15T13:31:52.388Z,13.62
2019-03-15T13:32:52.250Z,13.67
2019-03-15T13:33:52.240Z,13.70
2019-03-15T13:34:52.311Z,13.65
2019-03-15T13:35:52.174Z,13.61
2019-03-15T13:36:52.320Z,13.55
2019-03-15T13:37:52.194Z,13.49
2019-03-15T13:38:52.109Z,13.52
2019-03-15T13:39:52.085Z,13.54
2019-03-15T13:40:52.261Z,13.54
2019-03-15T13:41:52.029Z,13.62
2019-03-15T13:42:52.162Z,13.62
2019-03-15T13:43:51.982Z,13.63
2019-03-15T13:44:51.959Z,13.54
2019-03-15T13:45:52.090Z,13.62
2019-03-15T13:46:51.903Z,13.58
2019-03-15T13:47:52.109Z,13.58
2019-03-15T13:48:51.850Z,13.51
2019-03-15T13:49:51.839Z,13.55
2019-03-15T13:50:51.810Z,13.54
2019-03-15T13:51:51.921Z,13.55
2019-03-15T13:52:51.771Z,13.62
2019-03-15T13:53:51.941Z,13.58
2019-03-15T13:54:51.698Z,13.61
2019-03-15T13:55:51.681Z,13.67
2019-03-15T13:56:51.860Z,13.63
2019-03-15T13:57:51.640Z,13.63
2019-03-15T13:58:57.058Z,13.73
2019-03-15T13:59:51.582Z,13.61
2019-03-15T14:00:51.560Z,13.69
2019-03-15T14:01:51.543Z,13.74
2019-03-15T14:02:51.579Z,13.77
2019-03-15T14:03:51.483Z,13.79
2019-03-15T14:04:51.501Z,13.79
2019-03-15T14:05:51.421Z,13.81
2019-03-15T14:06:51.412Z,13.88
2019-03-15T14:07:51.422Z,13.80
2019-03-15T14:08:51.360Z,13.83
2019-03-15T14:09:51.432Z,13.79
2019-03-15T14:10:51.301Z,13.94
2019-03-15T14:11:51.340Z,13.89
2019-03-15T14:12:51.253Z,13.91
2019-03-15T14:13:51.363Z,13.80
2019-03-15T14:14:51.209Z,13.88
2019-03-15T14:15:51.275Z,13.89
2019-03-15T14:16:51.164Z,13.89